Salinas, CA (93901)

2:50 AM PDT on October 20, 2014 (GMT -0700)
University Park | Change Station
CLOSE
Current Station
Personal Weather Station
Location: Salinas, CA
Elevation: 52 ft
Nearby Weather Stations

Elev 52 ft 36.67 °N, 121.68 °W | Updated 34 seconds ago

Overcast
Overcast
60.1 °F
Feels Like 60.1 °F
N
0.0
Wind Variable Wind from SSW

Today
High -- | Low -- °F
--% Chance of Precip.
Yesterday
High -- | Low -- °F
Precip. -- in
7:18 AM 6:23 PM
Waning Crescent, 12% visible
Pressure 29.94 in
Visibility 8.0 miles
Clouds Scattered Clouds 700 ft
Overcast 1600 ft
Dew Point 60 °F
Humidity 98%
Rainfall 0.00 in
Snow Depth Not available.
UV 0 out of 12
Pollen 2.00 out of 12
Air Quality Not available.
Flu Activity Sporadic
SPECI KSNS 200946Z AUTO 03005KT 8SM SCT007 OVC016 16/14 A2994 RMK AO2

More Conditions Fewer Conditions

Pressure 29.94 in
Visibility 8.0 miles
Clouds Scattered Clouds 700 ft
Overcast 1600 ft
Dew Point 60 °F
Humidity 98%
Rainfall 0.00 in
Snow Depth Not available.
UV 0 out of 12
Pollen 2.00 out of 12
Air Quality Not available.
Flu Activity Sporadic
SPECI KSNS 200946Z AUTO 03005KT 8SM SCT007 OVC016 16/14 A2994 RMK AO2

More Conditions Fewer Conditions

10-Day Weather Forecast

Almanac

Astronomy

Oct. 20, 2014 Rise Set
Actual Time 7:18 AM PDT 6:23 PM PDT
Civil Twilight 6:52 AM PDT 6:49 PM PDT
Nautical Twilight 6:22 AM PDT 7:19 PM PDT
Astronomical Twilight 5:52 AM PDT 7:49 PM PDT
Moon 4:16 AM PDT 4:44 PM PDT
Length of Visible Light 11h 57m
Length of Day
11h 04m
Waning Crescent, 12% of the Moon is Illuminated
Today
Waning Crescent
Oct 23
New
Oct 30
First Quarter
Nov 6
Full
Nov 14
Last Quarter

Today's Extremes

State Highs State Lows

Community

WunderPhotos

Upload Photos

1,763,325 photos uploaded!

Nearby

Snow Depth

Station Depth Elevation
Leavitt Lake 1 in 9400 ft
Sonora Pass 0 in 8800 ft
Leavitt Meadows 1 in 7200 ft
Blue Lakes 0 in 8000 ft
Ebbetts Pass 0 in 8700 ft

Earthquake Activity

City Distance Mag. Time & Date
Soledad, California 31 miles 2.6 3:21 PM PDT
2014-10-18
East Foothills, California 48 miles 2.6 8:16 AM PDT
2014-10-18
Minimum magnitude displayed is 2.5.

Coastal Water Temperatures

Place Temperature
Monterey, CA 63.0 °F
Redwood City, CA 68.0 °F

Nearby Weather Stations